Weather at Niagara District Airport

Public forecast

Using degrees Celsius for public forecast. Weather courtesy of forecast.io.

Current aviation weather report (METAR) for Niagara District Airport

2024/05/28 15:24 (retrieved 38 minutes ago)

CYSN 281524Z 29013KT 15SM SCT032 OVC048 18/13 A2978 RMK SC4SC4 SLP086 DENSITY ALT 1000FT

Aviation forecast (TAF) for Niagara District Airport

2024/05/28 13:42 (retrieved 2 hours ago)

TAF CYSN 281241Z 2813/2901 25010KT P6SM SCT015 BKN080 TEMPO 2813/2816 BKN015 OVC080 FM281600 30012G22KT P6SM -SHRA SCT012 OVC060 TEMPO 2816/2901 5SM -SHRA BR BKN012 OVC040 PROB30 2818/2822 4SM TSRA BR BKN020CB RMK NXT FCST BY 282000Z